Time;durP1;ratioP1;P1;durP2;ratioP2;P2;SDS_P1;SDS_P2;PMS_P1;PMS_P2;Temp;Humidity;BMP_temperature;BMP_pressure;BME280_temperature;BME280_humidity;BME280_pressure;Samples;Min_cycle;Max_cycle;Signal;HPM_P1;HPM_P2
2022/07/23 00:00:40;;;;;;;4.70;0.50;;;;;;;29.78;33.27;101119.06;4899772;29;20352;-76
2022/07/23 00:03:09;;;;;;;1.48;0.40;;;;;;;29.84;33.04;101128.56;4905589;29;20060;-74
2022/07/23 00:05:39;;;;;;;0.95;0.38;;;;;;;29.75;31.74;101110.31;4900451;29;20372;-76
2022/07/23 00:08:08;;;;;;;1.20;0.32;;;;;;;29.85;33.01;101131.19;4906473;29;20096;-75
2022/07/23 00:10:38;;;;;;;0.60;0.30;;;;;;;29.74;31.49;101114.78;4910396;29;20120;-75
2022/07/23 00:13:06;;;;;;;1.13;0.40;;;;;;;29.77;31.81;101117.31;4902802;29;20081;-75
2022/07/23 00:15:35;;;;;;;0.40;0.30;;;;;;;29.63;31.51;101104.56;4903178;29;20126;-74
2022/07/23 00:18:07;;;;;;;1.17;0.30;;;;;;;29.64;31.88;101111.66;4896160;29;20045;-74
2022/07/23 00:20:35;;;;;;;;;;;;;;;29.77;32.24;101119.97;4903980;29;20123;-77
2022/07/23 00:23:05;;;;;;;3.10;0.60;;;;;;;29.76;31.69;101106.75;4903059;29;19927;-76
2022/07/23 00:25:34;;;;;;;1.80;0.52;;;;;;;29.65;31.68;101088.50;4903322;29;20056;-74
2022/07/23 00:28:03;;;;;;;0.50;0.30;;;;;;;29.84;32.62;101124.09;4893621;29;20049;-76
2022/07/23 00:30:33;;;;;;;0.38;0.30;;;;;;;29.61;31.73;101085.09;4901069;29;20056;-77
2022/07/23 00:33:03;;;;;;;1.10;0.40;;;;;;;29.73;33.90;101115.72;4884285;28;20358;-76
2022/07/23 00:35:34;;;;;;;1.52;0.40;;;;;;;29.57;33.86;101102.19;4882693;29;20045;-77
2022/07/23 00:38:05;;;;;;;1.57;0.50;;;;;;;29.62;33.12;101112.66;4881836;29;20294;-75
2022/07/23 00:40:34;;;;;;;1.65;0.32;;;;;;;29.53;33.14;101083.75;4884546;29;20057;-75
2022/07/23 00:43:03;;;;;;;0.52;0.40;;;;;;;29.75;33.32;101111.19;4882768;29;20088;-74
2022/07/23 00:45:32;;;;;;;1.98;0.30;;;;;;;29.62;33.30;101107.31;4887138;29;20057;-74
2022/07/23 00:48:01;;;;;;;0.50;0.30;;;;;;;29.53;32.44;101086.41;4880110;29;20056;-74
2022/07/23 00:50:30;;;;;;;0.22;0.20;;;;;;;29.39;33.20;101078.97;4876954;29;20488;-74
2022/07/23 00:52:59;;;;;;;0.43;0.20;;;;;;;29.55;34.39;101111.16;4887561;29;20309;-74
2022/07/23 00:55:30;;;;;;;1.17;0.40;;;;;;;29.54;35.27;101106.78;4887166;29;20056;-74
2022/07/23 00:58:00;;;;;;;1.10;0.40;;;;;;;29.55;34.08;101100.50;4886077;29;20068;-74
2022/07/23 01:00:29;;;;;;;0.88;0.43;;;;;;;29.43;34.98;101081.44;4883901;29;20124;-74
2022/07/23 01:02:57;;;;;;;1.05;0.40;;;;;;;29.56;32.66;101095.13;4892828;29;20088;-74
2022/07/23 01:05:26;;;;;;;0.55;0.20;;;;;;;29.56;32.73;101096.91;4875969;29;20064;-74
2022/07/23 01:07:55;;;;;;;1.02;0.40;;;;;;;29.48;33.38;101089.28;4896460;29;20061;-74
2022/07/23 01:10:33;;;;;;;0.57;0.30;;;;;;;29.53;34.03;101113.06;4894337;29;20156;-74
2022/07/23 01:13:10;;;;;;;1.13;0.40;;;;;;;29.30;34.50;101080.28;4888656;29;20060;-75
2022/07/23 01:15:40;;;;;;;1.65;0.40;;;;;;;29.44;34.33;101101.00;4883596;29;20061;-75
2022/07/23 01:18:10;;;;;;;1.13;0.40;;;;;;;29.27;33.78;101080.38;4888322;29;20057;-74
2022/07/23 01:20:39;;;;;;;1.27;0.22;;;;;;;29.27;34.16;101083.06;4886925;29;20084;-74
2022/07/23 01:23:10;;;;;;;0.55;0.30;;;;;;;29.30;33.04;101095.38;4883480;29;20099;-74
2022/07/23 01:25:38;;;;;;;1.00;0.40;;;;;;;29.20;33.62;101084.25;4882856;29;20060;-74
2022/07/23 01:28:07;;;;;;;1.02;0.30;;;;;;;29.06;34.10;101071.50;4885106;29;20159;-74
2022/07/23 01:30:36;;;;;;;2.55;0.32;;;;;;;29.08;33.85;101079.47;4891867;29;20113;-74
2022/07/23 01:33:05;;;;;;;1.83;0.40;;;;;;;29.01;32.75;101070.84;4904111;28;20065;-73
2022/07/23 01:35:38;;;;;;;0.85;0.30;;;;;;;29.01;34.24;101074.34;4900992;29;20376;-75
2022/07/23 01:38:16;;;;;;;3.22;0.60;;;;;;;29.04;33.42;101082.22;4902548;29;20057;-74
2022/07/23 01:40:45;;;;;;;2.47;0.30;;;;;;;28.92;34.05;101058.75;4904165;29;20710;-73
2022/07/23 01:43:14;;;;;;;1.55;0.40;;;;;;;28.97;33.35;101072.75;4904125;29;20089;-74
2022/07/23 01:45:45;;;;;;;0.63;0.55;;;;;;;28.81;34.54;101050.34;4903922;29;20044;-74
2022/07/23 01:48:14;;;;;;;0.70;0.43;;;;;;;28.91;33.07;101067.69;4894626;29;20309;-74
2022/07/23 01:50:42;;;;;;;1.48;0.40;;;;;;;28.92;32.95;101073.88;4903476;29;20059;-73
2022/07/23 01:53:13;;;;;;;1.30;0.55;;;;;;;28.81;33.97;101064.53;4905019;29;20171;-71
2022/07/23 01:55:44;;;;;;;1.60;0.52;;;;;;;28.83;34.17;101080.47;4905908;29;20056;-75
2022/07/23 01:58:16;;;;;;;1.70;0.90;;;;;;;28.82;34.62;101082.25;4897755;29;20115;-73
2022/07/23 02:00:47;;;;;;;0.40;0.30;;;;;;;28.61;34.40;101057.41;4904567;29;20352;-74
2022/07/23 02:03:16;;;;;;;1.92;0.32;;;;;;;28.67;35.36;101079.38;4904242;29;20083;-71
2022/07/23 02:05:45;;;;;;;1.25;0.50;;;;;;;28.65;35.55;101090.06;4898881;29;20051;-71
2022/07/23 02:08:18;;;;;;;2.45;0.40;;;;;;;28.50;36.64;101075.59;4900973;29;20085;-76
2022/07/23 02:11:03;;;;;;;1.48;0.50;;;;;;;28.51;36.57;101087.97;4905142;29;20052;-74
2022/07/23 02:13:31;;;;;;;2.40;0.50;;;;;;;28.35;36.71;101094.78;4904296;29;20104;-73
2022/07/23 02:16:03;;;;;;;1.52;0.50;;;;;;;28.16;37.31;101068.91;4903508;29;20083;-73
2022/07/23 02:18:31;;;;;;;0.98;0.32;;;;;;;28.17;38.54;101086.59;4903090;29;20068;-73
2022/07/23 02:21:00;;;;;;;0.63;0.40;;;;;;;28.01;38.16;101074.81;4905010;29;20071;-73
2022/07/23 02:23:33;;;;;;;1.70;0.50;;;;;;;27.91;38.11;101078.75;4905113;29;20064;-74
2022/07/23 02:26:02;;;;;;;1.08;0.50;;;;;;;27.88;39.29;101097.50;4903110;29;20068;-74
2022/07/23 02:28:31;;;;;;;1.02;0.60;;;;;;;27.78;38.78;101094.25;4903787;29;20060;-74
2022/07/23 02:31:00;;;;;;;2.53;0.70;;;;;;;27.44;38.93;101052.97;4902318;29;20119;-73
2022/07/23 02:33:31;;;;;;;0.65;0.50;;;;;;;27.30;38.90;101053.44;4897271;29;20088;-74
2022/07/23 02:36:00;;;;;;;1.27;0.47;;;;;;;27.28;39.29;101079.22;4905081;29;20048;-73
2022/07/23 02:38:29;;;;;;;1.10;0.60;;;;;;;27.15;39.68;101077.88;4900701;29;20096;-78
2022/07/23 02:40:59;;;;;;;1.10;0.55;;;;;;;27.03;39.84;101089.78;4907232;29;20115;-74
2022/07/23 02:43:31;;;;;;;1.17;0.60;;;;;;;26.95;39.77;101098.00;4906753;29;20095;-73
2022/07/23 02:46:00;;;;;;;2.47;0.50;;;;;;;26.77;39.82;101081.81;4901723;29;20348;-73
2022/07/23 02:48:29;;;;;;;0.93;0.50;;;;;;;26.57;39.93;101075.34;4902148;29;20071;-73
2022/07/23 02:50:58;;;;;;;1.67;0.77;;;;;;;26.61;40.97;101098.22;4899684;29;20052;-72
2022/07/23 02:53:28;;;;;;;6.15;0.57;;;;;;;26.32;40.32;101078.75;4902750;29;20088;-73
2022/07/23 02:55:59;;;;;;;3.92;0.70;;;;;;;26.28;40.86;101086.84;4903924;29;20151;-76
2022/07/23 02:58:28;;;;;;;2.63;0.68;;;;;;;26.19;41.19;101089.78;4902825;29;20048;-73
2022/07/23 03:00:58;;;;;;;3.67;0.77;;;;;;;25.97;42.03;101074.50;4905249;29;20061;-74
2022/07/23 03:03:27;;;;;;;1.17;0.60;;;;;;;25.88;41.72;101080.97;4903767;29;20253;-74
2022/07/23 03:05:56;;;;;;;0.75;0.65;;;;;;;25.75;41.84;101095.44;4910041;29;20049;-73
2022/07/23 03:08:24;;;;;;;3.17;0.90;;;;;;;25.61;42.11;101092.28;4904695;29;20124;-73
2022/07/23 03:10:57;;;;;;;2.78;0.60;;;;;;;25.48;42.33;101112.97;4902868;29;20522;-72
2022/07/23 03:13:56;;;;;;;0.95;0.80;;;;;;;25.28;42.54;101110.84;4893110;29;20119;-72
2022/07/23 03:16:25;;;;;;;1.13;0.80;;;;;;;25.01;43.05;101083.25;4900712;29;20309;-72
2022/07/23 03:18:53;;;;;;;5.68;0.73;;;;;;;25.02;42.94;101114.13;4896640;29;20056;-71
2022/07/23 03:21:27;;;;;;;2.55;0.70;;;;;;;24.85;43.14;101111.88;4901466;29;20060;-71
2022/07/23 03:23:56;;;;;;;1.00;0.70;;;;;;;24.78;43.65;101121.72;4898464;29;20312;-71
2022/07/23 03:26:26;;;;;;;2.05;0.68;;;;;;;24.65;43.99;101115.00;4901528;29;20357;-71
2022/07/23 03:28:56;;;;;;;2.60;0.70;;;;;;;24.58;44.32;101123.97;4898012;29;20288;-72
2022/07/23 03:31:25;;;;;;;5.80;0.98;;;;;;;24.43;44.81;101123.38;4898701;28;20057;-72
2022/07/23 03:33:55;;;;;;;1.35;0.90;;;;;;;24.35;45.22;101125.34;4903142;29;20071;-71
2022/07/23 03:36:26;;;;;;;2.85;0.68;;;;;;;24.23;44.60;101133.53;4901295;29;20053;-72
2022/07/23 03:38:55;;;;;;;1.65;0.80;;;;;;;23.96;45.07;101112.06;4904474;29;20053;-71
2022/07/23 03:41:24;;;;;;;3.42;0.90;;;;;;;23.82;45.56;101114.97;4905842;29;20299;-72
2022/07/23 03:43:58;;;;;;;2.15;0.80;;;;;;;23.81;46.51;101134.34;4903278;29;20214;-72
2022/07/23 03:46:29;;;;;;;1.15;0.77;;;;;;;23.57;46.37;101121.56;4907111;29;20057;-72
2022/07/23 03:48:58;;;;;;;1.83;0.80;;;;;;;23.58;46.90;101155.91;4901086;29;20104;-72
2022/07/23 03:51:27;;;;;;;2.40;0.80;;;;;;;23.44;46.80;101157.06;4899080;29;20090;-72
2022/07/23 03:53:56;;;;;;;6.63;1.05;;;;;;;23.25;47.57;101136.25;4900139;29;20060;-71
2022/07/23 03:56:26;;;;;;;1.45;0.77;;;;;;;23.29;47.94;101160.81;4900132;29;20056;-72
2022/07/23 03:58:54;;;;;;;1.67;0.70;;;;;;;23.17;48.16;101157.47;4901911;29;20056;-72
2022/07/23 04:01:29;;;;;;;3.55;0.95;;;;;;;23.05;47.96;101160.31;4904133;29;20060;-72
2022/07/23 04:03:58;;;;;;;2.05;0.85;;;;;;;22.93;48.98;101164.00;4902360;29;20083;-72
2022/07/23 04:06:32;;;;;;;1.77;1.15;;;;;;;22.73;48.60;101156.38;4903924;29;20044;-71
2022/07/23 04:09:01;;;;;;;2.00;0.85;;;;;;;22.76;49.64;101174.78;4904477;29;20099;-71
2022/07/23 04:11:33;;;;;;;1.70;0.98;;;;;;;22.60;50.50;101157.44;4901157;29;20097;-72
2022/07/23 04:14:02;;;;;;;3.75;0.95;;;;;;;22.58;49.79;101161.84;4905282;29;20064;-72
2022/07/23 04:16:32;;;;;;;1.42;0.80;;;;;;;22.38;50.42;101147.19;4907575;29;20049;-71
2022/07/23 04:19:04;;;;;;;1.60;0.73;;;;;;;22.34;50.62;101150.75;4906555;29;20071;-72
2022/07/23 04:21:33;;;;;;;0.93;0.80;;;;;;;22.15;50.18;101130.72;4905305;29;20128;-72
2022/07/23 04:24:02;;;;;;;2.10;0.90;;;;;;;22.31;50.12;101174.53;4902336;29;20052;-72
2022/07/23 04:26:30;;;;;;;1.17;0.88;;;;;;;22.22;50.21;101165.81;4910398;29;20392;-72
2022/07/23 04:28:59;;;;;;;3.22;0.80;;;;;;;22.09;50.05;101163.31;4907813;29;20523;-72
2022/07/23 04:31:28;;;;;;;1.60;0.90;;;;;;;22.15;50.57;101183.44;4908383;28;20060;-72
2022/07/23 04:33:59;;;;;;;4.70;1.10;;;;;;;22.08;50.57;101179.13;4886680;29;20064;-72
2022/07/23 04:36:30;;;;;;;1.95;0.80;;;;;;;22.01;50.82;101188.00;4889398;29;20060;-71
2022/07/23 04:38:59;;;;;;;0.97;0.77;;;;;;;21.81;50.78;101169.78;4885315;29;20065;-71
2022/07/23 04:41:28;;;;;;;1.92;0.90;;;;;;;21.84;50.75;101183.78;4886023;29;20053;-73
2022/07/23 04:43:57;;;;;;;2.50;0.75;;;;;;;21.80;51.12;101195.25;4881359;29;20117;-73
2022/07/23 04:46:25;;;;;;;1.73;0.80;;;;;;;21.51;50.92;101156.91;4889657;29;20056;-73
2022/07/23 04:48:54;;;;;;;1.58;0.90;;;;;;;21.53;50.29;101180.56;4885647;29;20148;-73
2022/07/23 04:51:25;;;;;;;1.60;1.00;;;;;;;21.54;50.82;101199.00;4888689;29;20053;-72
2022/07/23 04:53:54;;;;;;;0.80;0.80;;;;;;;21.47;51.07;101213.09;4886424;29;20057;-72
2022/07/23 04:56:22;;;;;;;1.73;0.95;;;;;;;21.42;51.14;101200.88;4886365;29;20053;-72
2022/07/23 04:58:51;;;;;;;2.72;0.82;;;;;;;21.18;51.35;101184.34;4889171;29;20095;-71
2022/07/23 05:01:20;;;;;;;1.35;0.77;;;;;;;21.10;51.68;101181.78;4889725;29;20056;-73
2022/07/23 05:03:49;;;;;;;4.10;0.93;;;;;;;20.94;51.51;101180.13;4888168;29;20108;-73
2022/07/23 05:06:18;;;;;;;2.28;1.15;;;;;;;20.96;52.13;101207.31;4886179;29;20053;-72
2022/07/23 05:08:49;;;;;;;1.45;0.70;;;;;;;20.95;51.87;101221.31;4879788;29;20097;-72
2022/07/23 05:11:17;;;;;;;0.80;0.57;;;;;;;20.86;51.69;101213.50;4886227;29;20072;-71
2022/07/23 05:13:46;;;;;;;2.03;0.82;;;;;;;20.67;52.15;101195.19;4883682;29;20120;-70
2022/07/23 05:16:15;;;;;;;1.55;0.90;;;;;;;20.73;52.29;101230.22;4878739;29;20140;-71
2022/07/23 05:18:44;;;;;;;3.22;1.00;;;;;;;20.54;52.71;101209.22;4884239;29;20233;-71
2022/07/23 05:21:13;;;;;;;0.90;0.60;;;;;;;20.46;52.83;101205.78;4876717;29;20077;-70
2022/07/23 05:23:42;;;;;;;2.05;0.80;;;;;;;20.49;52.74;101226.78;4878357;29;20155;-70
2022/07/23 05:26:15;;;;;;;1.58;0.80;;;;;;;20.34;53.11;101219.84;4877087;29;20302;-71
2022/07/23 05:28:47;;;;;;;1.48;0.80;;;;;;;20.36;53.23;101227.69;4876240;29;20110;-71
2022/07/23 05:31:16;;;;;;;1.10;0.80;;;;;;;20.29;53.36;101225.13;4880801;29;20083;-71
2022/07/23 05:33:52;;;;;;;2.53;0.70;;;;;;;20.14;53.60;101209.38;4902678;28;20405;-71
2022/07/23 05:36:21;;;;;;;1.92;0.80;;;;;;;20.17;54.14;101225.13;4898694;29;20075;-71
2022/07/23 05:38:50;;;;;;;2.67;0.75;;;;;;;20.14;54.29;101246.16;4904160;29;20202;-70
2022/07/23 05:41:20;;;;;;;1.92;0.60;;;;;;;20.07;53.79;101236.56;4907061;29;20364;-69
2022/07/23 05:43:49;;;;;;;2.90;0.82;;;;;;;19.92;53.87;101215.56;4898617;29;20044;-69
2022/07/23 05:46:30;;;;;;;0.68;0.52;;;;;;;19.84;54.32;101215.59;4906218;29;20345;-69
2022/07/23 05:49:01;;;;;;;4.40;0.60;;;;;;;19.90;55.23;101225.19;4906103;29;20075;-71
2022/07/23 05:51:38;;;;;;;1.97;0.70;;;;;;;19.84;54.62;101234.84;4903327;29;20049;-71
2022/07/23 05:54:12;;;;;;;1.85;0.93;;;;;;;19.61;54.83;101216.44;4906812;29;20083;-70
2022/07/23 05:56:52;;;;;;;1.02;0.60;;;;;;;19.61;55.67;101229.56;4909224;29;20060;-70
2022/07/23 05:59:30;;;;;;;1.75;0.73;;;;;;;19.57;55.82;101230.44;4902870;29;20096;-70
2022/07/23 06:02:16;;;;;;;2.63;0.70;;;;;;;19.57;55.56;101247.94;4906657;29;20068;-72
2022/07/23 06:04:58;;;;;;;2.03;0.63;;;;;;;19.53;55.83;101248.81;4883868;29;20083;-70
2022/07/23 06:07:45;;;;;;;2.30;0.70;;;;;;;19.44;55.75;101242.66;4903850;29;20116;-70
2022/07/23 06:10:16;;;;;;;1.55;0.60;;;;;;;19.22;55.83;101217.31;4903029;29;20129;-71
2022/07/23 06:12:50;;;;;;;2.50;0.97;;;;;;;19.23;55.54;101234.78;4906491;29;20352;-69
2022/07/23 06:15:30;;;;;;;1.77;0.63;;;;;;;19.16;56.29;101238.28;4894693;29;20097;-69
2022/07/23 06:18:04;;;;;;;1.20;0.52;;;;;;;19.14;55.98;101234.78;4904710;29;20044;-70
2022/07/23 06:20:36;;;;;;;0.82;0.55;;;;;;;19.17;56.71;101253.13;4897963;29;20052;-72
2022/07/23 06:23:12;;;;;;;0.90;0.65;;;;;;;19.04;56.52;101245.25;4902666;29;20378;-69
2022/07/23 06:28:40;;;;;;;2.10;0.60;;;;;;;19.03;56.82;101261.88;4901224;29;20398;-73
2022/07/23 06:31:12;;;;;;;0.68;0.60;;;;;;;18.89;56.81;101241.69;4909454;29;20044;-71
2022/07/23 06:33:58;;;;;;;0.97;0.63;;;;;;;18.94;56.85;101264.44;4903869;28;20067;-70
2022/07/23 06:36:35;;;;;;;1.75;0.60;;;;;;;18.74;56.99;101239.88;4905494;29;20346;-70
2022/07/23 06:39:04;;;;;;;2.00;0.77;;;;;;;18.82;56.93;101256.53;4906236;29;20055;-70
2022/07/23 06:41:35;;;;;;;1.77;0.70;;;;;;;18.69;56.97;101236.34;4905943;29;20332;-70
2022/07/23 06:44:08;;;;;;;4.30;0.63;;;;;;;18.62;57.65;101231.09;4902072;29;20104;-70
2022/07/23 06:46:40;;;;;;;1.10;0.60;;;;;;;18.79;57.43;101269.63;4905953;29;20051;-70
2022/07/23 06:49:18;;;;;;;0.98;0.73;;;;;;;18.57;57.46;101226.69;4895662;29;20044;-70
2022/07/23 06:51:48;;;;;;;2.67;0.60;;;;;;;18.61;56.88;101234.56;4897851;29;20151;-70
2022/07/23 06:54:25;;;;;;;1.33;0.73;;;;;;;18.63;57.49;101243.31;4908352;29;20058;-70
2022/07/23 06:57:03;;;;;;;1.05;0.60;;;;;;;18.59;56.95;101252.03;4903544;29;20806;-70
2022/07/23 06:59:36;;;;;;;0.63;0.50;;;;;;;18.53;57.52;101243.28;4910090;29;20053;-70
2022/07/23 07:02:07;;;;;;;;;;;;;;;18.60;57.52;101263.41;4904100;29;20052;-70
2022/07/23 07:04:38;;;;;;;1.83;0.88;;;;;;;18.57;57.24;101269.50;4899692;29;19919;-70
2022/07/23 07:07:35;;;;;;;1.30;0.60;;;;;;;18.49;57.93;101268.59;4902943;29;20096;-70
2022/07/23 07:10:12;;;;;;;2.55;0.63;;;;;;;18.38;57.27;101263.28;4900053;29;20066;-69
2022/07/23 07:12:48;;;;;;;1.58;0.70;;;;;;;18.41;58.62;101278.16;4905416;29;20053;-70
2022/07/23 07:18:07;;;;;;;1.30;0.60;;;;;;;18.24;58.23;101270.19;4898605;29;20063;-70
2022/07/23 07:20:51;;;;;;;4.43;0.70;;;;;;;18.21;58.64;101278.91;4899800;29;20064;-70
2022/07/23 07:23:28;;;;;;;1.65;0.70;;;;;;;18.09;58.87;101267.47;4896422;29;20076;-71
2022/07/23 07:26:00;;;;;;;3.15;0.70;;;;;;;18.04;59.14;101267.44;4900880;29;20164;-71
2022/07/23 07:28:33;;;;;;;2.00;0.70;;;;;;;17.90;59.15;101269.97;4899224;29;20278;-72
2022/07/23 07:31:15;;;;;;;2.67;0.70;;;;;;;17.90;59.86;101274.34;4904297;29;20080;-72
2022/07/23 07:33:56;;;;;;;1.95;0.63;;;;;;;17.78;59.71;101264.63;4907036;28;20313;-70
2022/07/23 07:36:25;;;;;;;1.25;0.75;;;;;;;17.69;59.55;101254.06;4903176;29;20063;-70
2022/07/23 07:39:06;;;;;;;1.75;0.85;;;;;;;17.76;59.66;101276.81;4902016;29;20096;-70
2022/07/23 07:41:35;;;;;;;0.80;0.50;;;;;;;17.74;59.85;101289.00;4903575;29;20064;-70
2022/07/23 07:44:04;;;;;;;3.58;0.60;;;;;;;17.62;60.46;101270.59;4903915;29;20055;-70
2022/07/23 07:46:49;;;;;;;2.58;0.75;;;;;;;17.64;60.74;101276.69;4904504;29;20064;-71
2022/07/23 07:52:08;;;;;;;0.70;0.50;;;;;;;17.56;60.29;101277.50;4894929;29;20461;-71
2022/07/23 07:54:39;;;;;;;4.47;0.77;;;;;;;17.53;61.71;101284.47;4902593;29;20116;-70
2022/07/23 07:57:10;;;;;;;1.48;0.60;;;;;;;17.49;61.09;101278.31;4903333;29;20089;-70
2022/07/23 07:59:39;;;;;;;1.70;0.73;;;;;;;17.49;61.29;101282.66;4903665;29;20055;-70
2022/07/23 08:02:24;;;;;;;1.13;0.60;;;;;;;17.46;61.82;101288.75;4906640;29;20116;-70
2022/07/23 08:05:05;;;;;;;1.63;0.50;;;;;;;17.42;61.43;101284.34;4901419;29;20083;-70
2022/07/23 08:07:34;;;;;;;1.67;0.60;;;;;;;17.39;61.95;101286.94;4901677;29;20056;-70
2022/07/23 08:10:11;;;;;;;1.65;0.60;;;;;;;17.28;61.93;101273.75;4899298;29;20052;-71
2022/07/23 08:12:56;;;;;;;0.93;0.60;;;;;;;17.38;63.10;101296.53;4899554;29;20822;-71
2022/07/23 08:15:38;;;;;;;2.55;1.08;;;;;;;17.30;62.65;101292.94;4901771;29;20084;-70
2022/07/23 08:18:26;;;;;;;2.35;0.73;;;;;;;17.20;63.11;101274.53;4897734;29;20075;-71
2022/07/23 08:21:07;;;;;;;3.60;0.60;;;;;;;17.28;63.45;101299.91;4894689;29;20120;-70
2022/07/23 08:23:36;;;;;;;1.52;0.57;;;;;;;17.24;63.19;101292.88;4900972;29;20088;-70
2022/07/23 08:26:06;;;;;;;1.95;0.73;;;;;;;17.19;63.30;101294.56;4912331;29;20052;-70
2022/07/23 08:28:38;;;;;;;1.33;0.65;;;;;;;17.17;62.87;101301.53;4904734;29;20056;-70
2022/07/23 08:33:52;;;;;;;1.45;0.65;;;;;;;17.09;62.73;101297.97;4890656;28;20293;-70
2022/07/23 08:36:36;;;;;;;1.08;0.57;;;;;;;17.06;63.22;101298.78;4896991;29;20338;-70
2022/07/23 08:39:10;;;;;;;1.50;0.70;;;;;;;16.95;63.10;101285.59;4910780;29;20054;-70
2022/07/23 08:41:42;;;;;;;1.02;0.70;;;;;;;16.98;64.01;101300.44;4901563;29;20145;-70
2022/07/23 08:44:25;;;;;;;1.33;0.70;;;;;;;16.95;63.91;101305.66;4902519;29;20053;-70
2022/07/23 08:47:12;;;;;;;1.88;1.05;;;;;;;16.89;63.84;101295.97;4899317;29;20092;-70
2022/07/23 08:49:46;;;;;;;4.55;0.60;;;;;;;16.80;64.06;101295.00;4910512;29;20221;-71
2022/07/23 08:52:17;;;;;;;1.70;0.70;;;;;;;16.77;63.77;101287.97;4911065;29;20057;-70
2022/07/23 08:54:59;;;;;;;;;;;;;;;;;;;;;
2022/07/23 08:57:54;;;;;;;1.08;0.50;;;;;;;16.70;64.38;101288.75;4887298;29;20080;-71
2022/07/23 09:00:24;;;;;;;1.33;0.52;;;;;;;16.62;64.40;101296.47;4902654;29;20064;-69
2022/07/23 09:02:59;;;;;;;0.73;0.60;;;;;;;16.66;64.50;101307.84;4908741;29;20056;-70
2022/07/23 09:05:38;;;;;;;3.17;0.63;;;;;;;16.63;64.08;101302.56;4908809;29;20044;-70
2022/07/23 09:08:12;;;;;;;1.75;0.65;;;;;;;16.49;64.21;101290.22;4905157;29;20049;-70
2022/07/23 09:11:01;;;;;;;0.95;0.52;;;;;;;16.57;65.69;101312.94;4906262;29;20257;-71
2022/07/23 09:13:38;;;;;;;1.35;0.55;;;;;;;16.48;65.26;101305.84;4905202;29;20073;-71
2022/07/23 09:16:10;;;;;;;2.08;0.60;;;;;;;16.42;65.60;101309.22;4902993;29;20133;-70
2022/07/23 09:18:45;;;;;;;1.42;0.50;;;;;;;16.46;65.57;101321.50;4906725;29;20058;-70
2022/07/23 09:21:25;;;;;;;0.93;0.38;;;;;;;16.34;66.04;101305.66;4908296;29;20051;-70
2022/07/23 09:24:19;;;;;;;2.53;0.77;;;;;;;16.41;65.94;101317.06;4907350;29;20085;-70
2022/07/23 09:26:55;;;;;;;1.63;0.60;;;;;;;16.38;66.32;101323.13;4903513;29;20064;-71
2022/07/23 09:29:43;;;;;;;1.60;0.60;;;;;;;16.33;67.21;101319.56;4907188;29;20056;-70
2022/07/23 09:32:24;;;;;;;0.88;0.63;;;;;;;16.26;66.88;101305.56;4913283;29;20048;-70
2022/07/23 09:35:01;;;;;;;1.27;0.60;;;;;;;16.27;66.80;101312.50;4900639;28;20405;-70
2022/07/23 09:37:40;;;;;;;2.65;0.55;;;;;;;16.24;66.89;101320.31;4906571;29;20100;-70
2022/07/23 09:40:17;;;;;;;1.08;0.57;;;;;;;16.19;66.29;101315.84;4905910;29;20061;-70
2022/07/23 09:42:59;;;;;;;1.38;0.73;;;;;;;16.08;67.84;101302.63;4904750;29;20127;-71
2022/07/23 09:45:34;;;;;;;1.73;0.63;;;;;;;16.04;68.19;101317.38;4904934;29;20111;-70
2022/07/23 09:48:19;;;;;;;0.93;0.40;;;;;;;16.02;68.00;101318.22;4906275;29;20060;-70
2022/07/23 09:50:55;;;;;;;2.17;0.77;;;;;;;16.03;67.90;101320.84;4905541;29;20064;-70
2022/07/23 09:53:36;;;;;;;0.85;0.52;;;;;;;15.87;68.05;101298.84;4906141;29;20068;-70
2022/07/23 09:56:11;;;;;;;1.92;0.55;;;;;;;16.04;67.87;101329.56;4905315;29;20045;-70
2022/07/23 09:58:52;;;;;;;1.05;0.60;;;;;;;16.02;68.35;101329.53;4905793;29;20053;-70
2022/07/23 10:01:21;;;;;;;4.47;0.57;;;;;;;15.97;68.12;101325.09;4901073;29;20111;-70
2022/07/23 10:03:56;;;;;;;1.67;0.65;;;;;;;15.86;68.51;101317.09;4900708;29;20325;-70
2022/07/23 10:06:36;;;;;;;1.90;0.57;;;;;;;15.82;68.95;101320.50;4902808;29;20068;-70
2022/07/23 10:09:19;;;;;;;2.05;0.57;;;;;;;15.87;68.91;101334.47;4898814;29;20049;-70
2022/07/23 10:11:54;;;;;;;5.00;0.80;;;;;;;15.85;69.15;101341.41;4899948;29;20056;-70
2022/07/23 10:14:27;;;;;;;1.25;0.50;;;;;;;15.81;69.20;101334.41;4902262;29;20336;-70
2022/07/23 10:16:59;;;;;;;;;;;;;;;15.76;68.76;101342.16;4903657;29;20045;-70
2022/07/23 10:19:32;;;;;;;1.80;0.52;;;;;;;15.61;68.26;101319.22;4902015;29;19926;-70
2022/07/23 10:22:06;;;;;;;1.27;0.55;;;;;;;15.57;69.46;101325.22;4905820;29;20066;-70
2022/07/23 10:24:58;;;;;;;1.55;0.60;;;;;;;15.59;70.44;101344.41;4901544;29;20049;-70
2022/07/23 10:27:58;;;;;;;1.25;0.57;;;;;;;15.53;70.17;101339.09;4901019;29;20218;-70
2022/07/23 10:30:45;;;;;;;2.15;0.50;;;;;;;15.35;69.51;101310.06;4899575;29;20056;-70
2022/07/23 10:33:54;;;;;;;0.50;0.30;;;;;;;15.31;70.93;101321.28;4901789;28;20060;-70
2022/07/23 10:36:31;;;;;;;0.63;0.50;;;;;;;15.28;70.27;101319.50;4899626;29;20120;-70
2022/07/23 10:39:09;;;;;;;1.58;0.50;;;;;;;15.17;71.14;101306.25;4904226;29;20052;-70
2022/07/23 10:41:42;;;;;;;1.75;0.50;;;;;;;15.14;71.49;101316.63;4905401;29;20064;-70
2022/07/23 10:44:26;;;;;;;2.38;0.60;;;;;;;15.13;72.71;101327.00;4908094;29;20040;-70
2022/07/23 10:49:47;;;;;;;1.42;0.30;;;;;;;14.95;73.07;101312.75;4905504;29;20053;-71
2022/07/23 10:52:23;;;;;;;1.33;0.47;;;;;;;14.98;73.01;101320.66;4899103;29;20064;-70
2022/07/23 10:54:58;;;;;;;1.02;0.40;;;;;;;14.92;72.96;101319.63;4899596;29;20048;-71
2022/07/23 10:57:42;;;;;;;0.90;0.40;;;;;;;14.98;73.09;101331.06;4899288;29;20123;-70
2022/07/23 11:00:31;;;;;;;0.70;0.57;;;;;;;15.02;73.50;101340.69;4900777;29;20128;-70
2022/07/23 11:03:02;;;;;;;1.88;0.52;;;;;;;14.96;73.82;101337.09;4898444;29;20048;-71
2022/07/23 11:05:54;;;;;;;1.88;0.50;;;;;;;14.98;73.81;101338.00;4903240;29;20116;-71
2022/07/23 11:11:24;;;;;;;3.03;0.47;;;;;;;15.07;73.67;101352.09;4901873;29;20044;-71
2022/07/23 11:13:58;;;;;;;1.00;0.55;;;;;;;15.09;73.75;101354.72;4902857;29;20064;-70
2022/07/23 11:16:50;;;;;;;1.10;0.60;;;;;;;15.05;74.00;101350.31;4900977;29;20056;-70
2022/07/23 11:19:21;;;;;;;0.88;0.63;;;;;;;15.01;73.75;101333.72;4901742;29;20060;-70
2022/07/23 11:22:34;;;;;;;0.30;0.30;;;;;;;14.98;73.53;101338.00;4890114;29;20084;-70
2022/07/23 11:25:06;;;;;;;2.28;0.38;;;;;;;15.11;73.24;101359.97;4905387;29;20060;-70
2022/07/23 11:27:51;;;;;;;1.75;0.70;;;;;;;15.11;73.05;101363.47;4904650;29;20076;-71
2022/07/23 11:30:51;;;;;;;0.60;0.40;;;;;;;14.99;73.32;101343.25;4899121;29;20056;-70
2022/07/23 11:33:25;;;;;;;0.35;0.30;;;;;;;15.11;73.54;101366.06;4911511;28;20074;-70
2022/07/23 11:36:07;;;;;;;0.95;0.40;;;;;;;15.06;73.74;101355.53;4903548;29;20079;-70
2022/07/23 11:38:42;;;;;;;1.40;0.43;;;;;;;14.97;73.47;101346.66;4898032;29;20096;-70
2022/07/23 11:41:13;;;;;;;1.15;0.28;;;;;;;14.95;72.81;101346.63;4891709;29;20049;-70
2022/07/23 11:43:49;;;;;;;0.80;0.40;;;;;;;14.96;72.93;101344.91;4901054;29;20052;-70
2022/07/23 11:46:36;;;;;;;0.60;0.32;;;;;;;15.09;73.27;101365.16;4900172;29;20079;-70
2022/07/23 11:49:20;;;;;;;1.55;0.50;;;;;;;14.97;73.64;101342.31;4900409;29;20124;-70
2022/07/23 11:51:59;;;;;;;3.13;0.50;;;;;;;14.97;73.05;101346.66;4896363;29;20092;-70
2022/07/23 11:54:30;;;;;;;3.95;0.70;;;;;;;14.84;73.20;101319.47;4893006;29;20117;-70
2022/07/23 11:56:58;;;;;;;1.90;0.70;;;;;;;14.98;73.80;101343.19;4904855;29;20368;-70
2022/07/23 11:59:36;;;;;;;1.02;0.50;;;;;;;15.03;73.52;101359.84;4891473;29;20049;-70
2022/07/23 12:02:19;;;;;;;0.85;0.40;;;;;;;14.84;73.95;101330.78;4903449;29;20048;-70
2022/07/23 12:05:02;;;;;;;0.45;0.40;;;;;;;14.84;73.87;101341.22;4896565;29;20169;-71
2022/07/23 12:07:43;;;;;;;0.50;0.40;;;;;;;14.98;74.41;101369.25;4901471;29;20060;-70
2022/07/23 12:10:18;;;;;;;0.63;0.45;;;;;;;14.87;73.88;101351.69;4897098;29;20349;-70
2022/07/23 12:12:52;;;;;;;0.70;0.25;;;;;;;14.87;74.28;101362.09;4892600;29;20077;-70
2022/07/23 12:15:33;;;;;;;0.93;0.55;;;;;;;14.91;74.71;101377.78;4899307;29;20065;-70